Sal, Cape Verde
Current Conditions -  °F | °C
As of 6:00 AM on Saturday 20 Dec 2014 (Local Time) from GVAC Reporting Station
Haze Haze  
Wind Chill: 68°   Ceiling: Unl
Heat Index: 68°   Visibility: 3mi
Dew Point: 59°   Wind: 10mph
Humidity: 73%   Direction: 60°ENE
Pressure: 30.03"   Gusts: NA
Location:  16.72°N, 22.93°W
Report Text: GVAC 200700Z 06009KT 5000 HZ SCT015 20/15 Q1017 NOSIG
Loading
Personal Weather Stations






























Interactive Weather Map New forecast layout! Learn more

10-Day Weather Forecast

Advertisements
Track Severe Weather on mobile